1964 Severe Tropical Cyclone BESSIE (1964004S14125)


IBTrACS version v04r00. Visit IBTrACS website for data access.
Please direct all questions to the IBTrACS Q and A forum

Storm track - Intensity - Wind Radii - Intensity Data - Source Data - All data

Summary Information

Storm ID 1964004S14125
Start Jan 3 23Z
Landfall Jan 9 21Z
Max Intensity 90 kt (Jan 9 18Z), 950 mb (Jan 10 01Z)
End Jan 13 01Z
ATCF IDs ,SH051964
Track status Best track data.

Storm track plot

Map of storm track

Intensity plots

Map of storm track

Radial wind information

No radial wind information for this storm


Position and Intensity Table

BASIN ISO_TIME_________ NATURE LAT LON WMO PRES BOM PRES NEUMANN WIND NEUMANN PRES
degrees north degrees east mb mb kts mb
SI 1964-01-03 23:00:00 NR -13.80 125.30
SI 1964-01-04 00:00:00 TS -13.81 125.29
SI 03:00:00 TS -13.85 125.24
SI 06:00:00 TS -13.89 125.19
SI 09:00:00 TS -13.90 125.14
SI 11:00:00 TS -13.90 125.11
SI 12:00:00 TS -13.90 125.10
SI 15:00:00 TS -13.94 125.09
SI 18:00:00 TS -13.97 125.09
SI 21:00:00 TS -13.97 125.05
SI 23:00:00 TS -13.99 125.02
SI 1964-01-05 00:00:00 TS -14.01 124.99
SI 03:00:00 TS -14.14 124.90
SI 06:00:00 TS -14.31 124.80
SI 09:00:00 TS -14.46 124.69
SI 11:00:00 TS -14.57 124.62
SI 12:00:00 TS -14.61 124.59
SI 15:00:00 TS -14.76 124.50
SI 18:00:00 TS -14.90 124.40
SI 21:00:00 TS -15.00 124.31
SI 23:00:00 TS -15.08 124.23
SI 1964-01-06 00:00:00 TS -15.12 124.18
SI 03:00:00 TS -15.26 124.01
SI 06:00:00 TS -15.41 123.79
SI 07:00:00 TS -15.43 123.69 999 999
SI 09:00:00 TS -15.51 123.50
SI 11:00:00 TS -15.59 123.30
SI 12:00:00 TS -15.61 123.18 35 998
SI 15:00:00 TS -15.76 122.89 35 997
SI 18:00:00 TS -15.92 122.60 35 997
SI 21:00:00 TS -16.08 122.34 35 997
SI 23:00:00 TS -16.19 122.19 35 997
SI 1964-01-07 00:00:00 TS -16.23 122.11 35 997
SI 01:00:00 TS -16.27 122.04 997 997 35 996
SI 03:00:00 TS -16.36 121.93 37 996
SI 06:00:00 TS -16.47 121.81 40 995
SI 09:00:00 TS -16.58 121.72 42 993
SI 11:00:00 TS -16.65 121.67 44 992
SI 12:00:00 TS -16.69 121.64 45 992
SI 15:00:00 TS -16.83 121.52 47 990
SI 18:00:00 TS -16.97 121.41 50 989
SI 21:00:00 TS -17.09 121.35 52 987
SI 23:00:00 TS -17.15 121.32 54 986
SI 1964-01-08 00:00:00 TS -17.19 121.31 55 986
SI 01:00:00 TS -17.22 121.30 985 985 55 985
SI 03:00:00 TS -17.29 121.27 55 984
SI 06:00:00 TS -17.39 121.25 55 983
SI 09:00:00 TS -17.50 121.24 57 981
SI 11:00:00 TS -17.58 121.23 59 980
SI 12:00:00 TS -17.61 121.23 60 980
SI 15:00:00 TS -17.71 121.19 62 979
SI 18:00:00 TS -17.81 121.16 65 978
SI 21:00:00 TS -17.89 121.16 67 976
SI 23:00:00 TS -17.95 121.16 69 975
SI 1964-01-09 00:00:00 TS -17.99 121.17 70 975
SI 01:00:00 TS -18.04 121.17 975 975 70 974
SI 03:00:00 TS -18.14 121.18 72 972
SI 06:00:00 TS -18.31 121.21 75 970
SI 09:00:00 TS -18.46 121.29 77 967
SI 11:00:00 TS -18.55 121.36 79 964
SI 12:00:00 TS -18.59 121.39 80 964
SI 15:00:00 TS -18.72 121.49 85 961
SI 18:00:00 TS -18.83 121.60 90 958
SI 21:00:00 TS -18.93 121.73 77 955
SI 23:00:00 TS -18.99 121.82 69 952
SI 1964-01-10 00:00:00 TS -19.02 121.86 65 952
SI 01:00:00 TS -19.06 121.89 950 950 62 952
SI 03:00:00 TS -19.14 121.95 57 954
SI 06:00:00 TS -19.26 122.05 50 957
SI 08:00:00 TS -19.34 122.14 46 958
SI 09:00:00 TS -19.38 122.19 45 959
SI 11:00:00 TS -19.46 122.29 41 961
SI 12:00:00 TS -19.50 122.34 40 962
SI 15:00:00 TS -19.63 122.49 37 964
SI 18:00:00 TS -19.75 122.63 35 967
SI 21:00:00 TS -19.85 122.77 32 970
SI 23:00:00 TS -19.91 122.88 30 972
SI 1964-01-11 00:00:00 TS -19.94 122.93 30 974
SI 01:00:00 TS -19.97 122.99 980 980 30 975
SI 03:00:00 TS -20.04 123.05 30 978
SI 06:00:00 TS -20.13 123.13 30 982
SI 09:00:00 TS -20.21 123.16 30 984
SI 11:00:00 TS -20.25 123.18 30 985
SI 12:00:00 TS -20.27 123.15 30 986
SI 15:00:00 TS -20.35 123.18 30 988
SI 18:00:00 TS -20.43 123.22 30 990
SI 21:00:00 TS -20.48 123.25 30 991
SI 23:00:00 TS -20.55 123.44 30 992
SI 1964-01-12 00:00:00 TS -20.58 123.57 30 993
SI 01:00:00 TS -20.68 123.88 995 995 29 993
SI 02:30:00 TS -20.87 124.49 995 995 27 993
SI 03:00:00 TS -20.93 124.70 27 994
SI 06:00:00 TS -21.19 125.76 25 995
SI 09:00:00 TS -21.24 126.46 25 995
SI 12:00:00 TS -21.17 126.92 25 995
SI 15:00:00 TS -21.03 127.25 22 995
SI 18:00:00 TS -20.90 127.56 20 995
SI 21:00:00 TS -20.68 127.67 20 995
SI 1964-01-13 00:00:00 TS -20.43 127.70 20 995
SI 01:00:00 NR -20.30 127.70 996 996

Source Information

Agency Information
USA bsh051964.txt
TOKYO
CMA
HKO
NEWDELHI
REUNION
BOM IDCKMSTM0S.csv:Line=3865:BESSIE
NADI
WELLINGTON
DS824 s_hem.dat:909:05S
TD9636 cons_worldwide_trop_cyclone_18710101-19891231-006:Line=6725
TD9635
NEUMANN tracks.sh:Storm=91:BESSIE:BSH0564:BM329
MLC

All available IBTrACS Data

SEASON BASIN SUBBASIN ISO_TIME_________ NATURE LAT LON WMO PRES WMO AGENCY DIST2LAND LANDFALL IFLAG USA AGENCY USA ATCF_ID USA LAT USA LON USA SSHS BOM LAT BOM LON BOM PRES BOM PRES_METHOD DS824 LAT DS824 LON DS824 STAGE TD9636 LAT TD9636 LON TD9636 STAGE NEUMANN LAT NEUMANN LON NEUMANN CLASS NEUMANN WIND NEUMANN PRES STORM SPEED STORM DIR
Year degrees north degrees east mb km km degrees north degrees east 1 degrees north degrees east mb degrees north degrees east degrees north degrees east degrees north degrees east kts mb kts degrees
1964 SI WA 1964-01-03 23:00:00 NR -13.80 125.30 64 64 __________O___ -1 -13.80 125.30 1 1 0
1964 SI WA 1964-01-04 00:00:00 TS -13.81 125.29 64 62 O________OP___ jtwc_sh SH051964 -13.80 125.30 -1 -13.80 125.30 TC -13.81 125.28 1 1 227
1964 SI WA 03:00:00 TS -13.85 125.24 62 62 P________PP___ SH051964 -13.86 125.25 -1 -13.86 125.25 TC -13.84 125.22 1 1 228
1964 SI WA 06:00:00 TS -13.89 125.19 62 62 O________OP___ jtwc_sh SH051964 -13.90 125.20 -1 -13.90 125.20 TC -13.87 125.17 1 1 246
1964 SI WA 09:00:00 TS -13.90 125.14 70 70 P________PP___ SH051964 -13.90 125.14 -1 -13.90 125.14 TC -13.89 125.12 1 1 263
1964 SI WA 11:00:00 TS -13.90 125.11 70 70 P________PO___ SH051964 -13.90 125.11 -1 -13.90 125.11 TC -13.90 125.10 1 1 265
1964 SI WA 12:00:00 TS -13.90 125.10 70 70 O________OP___ jtwc_sh SH051964 -13.90 125.10 -1 -13.90 125.10 TC -13.90 125.09 1 1 199
1964 SI WA 15:00:00 TS -13.94 125.09 70 63 P________PP___ SH051964 -13.95 125.10 -1 -13.95 125.10 TC -13.91 125.07 1 1 0
1964 SI WA 18:00:00 TS -13.97 125.09 63 63 O________OP___ jtwc_sh SH051964 -14.00 125.10 -1 -14.00 125.10 TC -13.92 125.06 1 1 225
1964 SI WA 21:00:00 TS -13.97 125.05 63 63 P________PP___ SH051964 -13.98 125.06 -1 -13.98 125.06 TC -13.95 125.03 1 1 255
1964 SI WA 23:00:00 TS -13.99 125.02 70 70 P________PO___ SH051964 -13.99 125.02 -1 -13.99 125.02 TC -14.00 125.00 1 1 238
1964 SI WA 1964-01-05 00:00:00 TS -14.01 124.99 70 59 O________OP___ jtwc_sh SH051964 -14.00 125.00 -1 -14.00 125.00 TC -14.03 124.98 1 3 216
1964 SI WA 03:00:00 TS -14.14 124.90 64 54 P________PP___ SH051964 -14.13 124.91 -1 -14.13 124.91 TC -14.17 124.89 1 4 212
1964 SI WA 06:00:00 TS -14.31 124.80 54 48 O________OP___ jtwc_sh SH051964 -14.30 124.80 -1 -14.30 124.80 TC -14.32 124.79 1 4 212
1964 SI WA 09:00:00 TS -14.46 124.69 54 54 P________PP___ SH051964 -14.45 124.70 -1 -14.45 124.70 TC -14.49 124.67 1 4 213
1964 SI WA 11:00:00 TS -14.57 124.62 64 64 P________PO___ SH051964 -14.55 124.63 -1 -14.55 124.63 TC -14.60 124.60 1 4 212
1964 SI WA 12:00:00 TS -14.61 124.59 64 55 O________OP___ jtwc_sh SH051964 -14.60 124.60 -1 -14.60 124.60 TC -14.64 124.57 1 3 212
1964 SI WA 15:00:00 TS -14.76 124.50 55 54 P________PP___ SH051964 -14.76 124.50 -1 -14.76 124.50 TC -14.77 124.49 1 3 213
1964 SI WA 18:00:00 TS -14.90 124.40 54 48 O________OP___ jtwc_sh SH051964 -14.90 124.40 -1 -14.90 124.40 TC -14.89 124.40 1 3 217
1964 SI WA 21:00:00 TS -15.00 124.31 58 54 P________PP___ SH051964 -15.00 124.31 -1 -15.00 124.31 TC -15.01 124.29 1 3 222
1964 SI WA 23:00:00 TS -15.08 124.23 59 59 P________PO___ SH051964 -15.06 124.24 -1 -15.06 124.24 TC -15.10 124.20 1 3 227
1964 SI WA 1964-01-06 00:00:00 TS -15.12 124.18 59 54 O________OP___ jtwc_sh SH051964 -15.10 124.20 -1 -15.10 124.20 TC -15.15 124.15 1 4 229
1964 SI WA 03:00:00 TS -15.26 124.01 54 54 P________PP___ SH051964 -15.24 124.02 -1 -15.24 124.02 TC -15.29 123.98 1 5 231
1964 SI WA 06:00:00 TS -15.41 123.79 68 68 O________OP___ jtwc_sh SH051964 -15.40 123.80 -1 -15.40 123.80 TC -15.44 123.78 1 5 241
1964 SI WA 07:00:00 TS -15.43 123.69 999 bom 78 78 P_____O__PP___ SH051964 -15.45 123.72 -1 -15.00 123.30 999 -15.45 123.72 TC -15.49 123.71 1 6 252
1964 SI WA 09:00:00 TS -15.51 123.50 81 74 P_____P__PP___ SH051964 -15.55 123.56 -1 -15.15 123.11 -15.55 123.56 TC -15.60 123.56 1 6 246
1964 SI WA 11:00:00 TS -15.59 123.30 79 79 P_____P__PO___ SH051964 -15.65 123.39 -1 -15.30 122.91 -15.65 123.39 TC -15.70 123.40 1 7 251
1964 SI WA 12:00:00 TS -15.61 123.18 85 78 O_____P__OP_O_ jtwc_sh SH051964 -15.70 123.30 -1 -15.37 122.82 -15.70 123.30 TC -15.75 123.31 1 -15.30 123.10 TC 35 998 6 247
1964 SI WA 15:00:00 TS -15.76 122.89 78 70 P_____P__PP_P_ SH051964 -15.85 123.00 -1 -15.59 122.54 -15.85 123.00 TC -15.91 123.03 1 -15.50 122.86 TC 35 997 6 241
1964 SI WA 18:00:00 TS -15.92 122.60 74 69 O_____P__OP_O_ jtwc_sh SH051964 -16.00 122.70 -1 -15.79 122.28 -16.00 122.70 TC -16.06 122.74 1 -15.70 122.60 TC 35 997 6 239
1964 SI WA 21:00:00 TS -16.08 122.34 77 77 P_____P__PP_P_ SH051964 -16.15 122.43 -1 -15.98 122.05 -16.15 122.43 TC -16.21 122.46 1 -15.92 122.34 TC 35 997 6 237
1964 SI WA 23:00:00 TS -16.19 122.19 77 77 P_____P__PO_P_ SH051964 -16.25 122.27 -1 -16.09 121.92 -16.25 122.27 TC -16.30 122.30 1 -16.04 122.17 TC 35 997 5 236
1964 SI WA 1964-01-07 00:00:00 TS -16.23 122.11 85 78 O_____P__OP_O_ jtwc_sh SH051964 -16.30 122.20 -1 -16.15 121.86 -16.30 122.20 TC -16.34 122.23 1 -16.10 122.10 TC 35 997 5 239
1964 SI WA 01:00:00 TS -16.27 122.04 997 bom 85 84 P_____O__PP_P_ SH051964 -16.35 122.14 -1 -16.20 121.80 997 -16.35 122.14 TC -16.39 122.17 1 -16.14 122.03 TC 35 996 4 233
1964 SI WA 03:00:00 TS -16.36 121.93 84 84 P_____P__PP_P_ SH051964 -16.46 122.03 -1 -16.30 121.70 -16.46 122.03 TC -16.47 122.05 1 -16.21 121.92 TC 37 996 4 228
1964 SI WA 06:00:00 TS -16.47 121.81 85 84 O_____P__OP_O_ jtwc_sh SH051964 -16.60 121.90 -1 -16.42 121.59 -16.60 121.90 TC -16.59 121.91 1 -16.30 121.80 TC 40 995 3 222
1964 SI WA 09:00:00 TS -16.58 121.72 84 84 P_____P__PP_P_ SH051964 -16.69 121.81 -1 -16.53 121.50 -16.69 121.81 TC -16.71 121.78 1 -16.40 121.73 TC 42 993 3 218
1964 SI WA 11:00:00 TS -16.65 121.67 84 77 P_____P__PO_P_ SH051964 -16.76 121.74 -1 -16.60 121.47 -16.76 121.74 TC -16.80 121.70 1 -16.47 121.71 TC 44 992 3 217
1964 SI WA 12:00:00 TS -16.69 121.64 86 81 O_____P__OP_O_ jtwc_sh SH051964 -16.80 121.70 -1 -16.63 121.45 -16.80 121.70 TC -16.85 121.65 1 -16.50 121.70 TC 45 992 3 218
1964 SI WA 15:00:00 TS -16.83 121.52 91 86 P_____P__PP_P_ SH051964 -17.00 121.49 -1 -16.72 121.42 -17.00 121.49 TC -17.00 121.50 1 -16.60 121.65 TC 47 990 4 217
1964 SI WA 18:00:00 TS -16.97 121.41 91 87 O_____P__OP_O_ jtwc_sh SH051964 -17.20 121.30 -1 -16.80 121.41 -17.20 121.30 TC -17.16 121.37 1 -16.70 121.60 TC 50 989 3 212
1964 SI WA 21:00:00 TS -17.09 121.35 87 87 P_____P__PP_P_ SH051964 -17.31 121.23 -1 -16.88 121.40 -17.31 121.23 TC -17.31 121.26 1 -16.80 121.54 TC 52 987 2 207
1964 SI WA 23:00:00 TS -17.15 121.32 95 95 P_____P__PO_P_ SH051964 -17.37 121.21 -1 -16.94 121.40 -17.37 121.21 TC -17.40 121.20 1 -16.87 121.51 TC 54 986 2 197
1964 SI WA 1964-01-08 00:00:00 TS -17.19 121.31 95 95 O_____P__OP_O_ jtwc_sh SH051964 -17.40 121.20 -1 -16.97 121.40 -17.40 121.20 TC -17.44 121.18 1 -16.90 121.50 TC 55 986 2 193
1964 SI WA 01:00:00 TS -17.22 121.30 985 bom 95 91 P_____O__PP_P_ SH051964 -17.43 121.18 -1 -17.00 121.40 985 -17.43 121.18 TC -17.48 121.16 1 -16.93 121.49 TC 55 985 2 203
1964 SI WA 03:00:00 TS -17.29 121.27 91 87 P_____P__PP_P_ SH051964 -17.50 121.14 -1 -17.07 121.38 -17.50 121.14 TC -17.55 121.13 1 -16.99 121.49 TC 55 984 2 196
1964 SI WA 06:00:00 TS -17.39 121.25 98 96 O_____P__OP_O_ jtwc_sh SH051964 -17.60 121.10 -1 -17.18 121.34 -17.60 121.10 TC -17.65 121.12 1 -17.10 121.50 TC 55 983 2 192
1964 SI WA 09:00:00 TS -17.50 121.24 96 95 P_____P__PP_P_ SH051964 -17.70 121.10 -1 -17.29 121.32 -17.70 121.10 TC -17.74 121.11 1 -17.25 121.51 TC 57 981 2 187
1964 SI WA 11:00:00 TS -17.58 121.23 95 95 P_____P__PO_P_ SH051964 -17.77 121.10 -1 -17.37 121.30 -17.77 121.10 TC -17.80 121.10 2 -17.35 121.51 TC 59 980 2 193
1964 SI WA 12:00:00 TS -17.61 121.23 95 95 O_____P__OP_O_ jtwc_sh SH051964 -17.80 121.10 -1 -17.40 121.30 -17.80 121.10 TC -17.82 121.09 2 -17.40 121.50 TC 60 980 2 197
1964 SI WA 15:00:00 TS -17.71 121.19 96 96 P_____P__PP_P_ SH051964 -17.91 121.05 -1 -17.52 121.28 -17.91 121.05 TC -17.88 121.05 2 -17.51 121.45 TC 62 979 2 198
1964 SI WA 18:00:00 TS -17.81 121.16 97 92 O_____P__OP_O_ jtwc_sh SH051964 -18.00 121.00 -1 -17.63 121.28 -18.00 121.00 TC -17.94 121.02 2 -17.60 121.40 TC 65 978 2 194
1964 SI WA 21:00:00 TS -17.89 121.16 92 92 P_____P__PP_P_ SH051964 -18.03 120.99 -1 -17.75 121.28 -18.03 120.99 TC -18.02 121.00 2 -17.70 121.39 TC 67 976 2 0
1964 SI WA 23:00:00 TS -17.95 121.16 92 84 P_____P__PO_P_ SH051964 -18.06 121.00 -1 -17.82 121.29 -18.06 121.00 TC -18.10 121.00 2 -17.77 121.39 TC 69 975 2 0
1964 SI WA 1964-01-09 00:00:00 TS -17.99 121.17 84 84 O_____P__OP_O_ jtwc_sh SH051964 -18.10 121.00 -1 -17.86 121.29 -18.10 121.00 TC -18.15 121.00 2 -17.80 121.40 TC 70 975 3 0
1964 SI WA 01:00:00 TS -18.04 121.17 975 bom 84 76 P_____O__PP_P_ SH051964 -18.17 120.99 -1 -17.90 121.30 975 -18.17 120.99 TC -18.22 121.00 2 -17.83 121.41 TC 70 974 3 176
1964 SI WA 03:00:00 TS -18.14 121.18 76 62 P_____P__PP_P_ SH051964 -18.33 120.98 -1 -17.95 121.33 -18.33 120.98 TC -18.35 121.02 2 -17.89 121.44 TC 72 972 3 170
1964 SI WA 06:00:00 TS -18.31 121.21 62 43 O_____P__OP_O_ jtwc_sh SH051964 -18.60 121.00 -1 -18.01 121.37 -18.60 121.00 TC -18.57 121.06 2 -18.00 121.50 TC 75 970 3 160
1964 SI WA 09:00:00 TS -18.46 121.29 43 33 P_____P__PP_P_ SH051964 -18.77 121.13 -1 -18.07 121.43 -18.77 121.13 TC -18.78 121.13 2 -18.15 121.55 TC 77 967 3 149
1964 SI WA 11:00:00 TS -18.55 121.36 33 31 P_____P__PO_P_ SH051964 -18.86 121.24 -1 -18.12 121.47 -18.86 121.24 TC -18.90 121.20 2 -18.25 121.58 TC 79 964 3 142
1964 SI WA 12:00:00 TS -18.59 121.39 31 23 O_____P__OP_O_ jtwc_sh SH051964 -18.90 121.30 -1 -18.14 121.50 -18.90 121.30 TC -18.95 121.24 2 -18.30 121.60 TC 80 964 3 143
1964 SI WA 15:00:00 TS -18.72 121.49 23 10 P_____P__PP_P_ SH051964 -19.06 121.44 -1 -18.23 121.56 -19.06 121.44 TC -19.08 121.39 2 -18.41 121.65 TC 85 961 3 141
1964 SI WA 18:00:00 TS -18.83 121.60 10 0 O_____P__OP_O_ jtwc_sh SH051964 -19.20 121.60 -1 -18.35 121.61 -19.20 121.60 TC -19.18 121.58 2 -18.50 121.70 TC 90 958 3 133
1964 SI WA 21:00:00 TS -18.93 121.73 0 0 P_____P__PP_P_ SH051964 -19.27 121.80 -1 -18.51 121.66 -19.27 121.80 TC -19.26 121.77 2 -18.58 121.76 TC 77 955 3 128
1964 SI WA 23:00:00 TS -18.99 121.82 0 0 P_____P__PO_P_ SH051964 -19.29 121.94 -1 -18.64 121.68 -19.29 121.94 TC -19.30 121.90 4 -18.65 121.79 TC 69 952 3 128
1964 SI WA 1964-01-10 00:00:00 TS -19.02 121.86 0 0 O_____P__OP_O_ jtwc_sh SH051964 -19.30 122.00 -1 -18.72 121.69 -19.30 122.00 TC -19.31 121.96 4 -18.70 121.80 TC 65 952 3 134
1964 SI WA 01:00:00 TS -19.06 121.89 950 bom 0 0 P_____O__PP_P_ SH051964 -19.30 122.05 -1 -18.80 121.70 950 4 -19.30 122.05 TC -19.32 122.02 4 -18.77 121.80 TC 62 952 3 143
1964 SI WA 03:00:00 TS -19.14 121.95 0 0 P_____P__PP_P_ SH051964 -19.30 122.15 -1 -19.00 121.69 -19.30 122.15 TC -19.34 122.14 4 -18.93 121.79 TC 57 954 3 144
1964 SI WA 06:00:00 TS -19.26 122.05 0 0 O_____P__OP_O_ jtwc_sh SH051964 -19.30 122.30 -1 -19.31 121.68 -19.30 122.30 TC -19.35 122.32 4 -19.20 121.80 TC 50 957 3 139
1964 SI WA 08:00:00 TS -19.34 122.14 bom 0 0 P_____O__PP_P_ SH051964 -19.31 122.44 -1 -19.50 121.70 -19.31 122.44 TC -19.36 122.44 4 -19.35 121.84 TC 46 958 4 133
1964 SI WA 09:00:00 TS -19.38 122.19 0 0 P_____P__PP_P_ SH051964 -19.33 122.51 -1 -19.57 121.73 -19.33 122.51 TC -19.37 122.49 4 -19.42 121.87 TC 45 959 4 129
1964 SI WA 11:00:00 TS -19.46 122.29 0 0 P_____P__PO_P_ SH051964 -19.37 122.64 -1 -19.69 121.80 -19.37 122.64 TC -19.40 122.60 2 -19.55 121.95 TC 41 961 4 130
1964 SI WA 12:00:00 TS -19.50 122.34 0 0 O_____P__OP_O_ jtwc_sh SH051964 -19.40 122.70 -1 -19.74 121.85 -19.40 122.70 TC -19.43 122.65 2 -19.60 122.00 TC 40 962 4 132
1964 SI WA 15:00:00 TS -19.63 122.49 0 0 P_____P__PP_P_ SH051964 -19.54 122.82 -1 -19.85 122.04 -19.54 122.82 TC -19.53 122.78 2 -19.72 122.19 TC 37 964 4 133
1964 SI WA 18:00:00 TS -19.75 122.63 0 0 O_____P__OP_O_ jtwc_sh SH051964 -19.70 122.90 -1 -19.92 122.26 -19.70 122.90 TC -19.67 122.90 2 -19.80 122.40 TC 35 967 4 129
1964 SI WA 21:00:00 TS -19.85 122.77 0 0 P_____P__PP_P_ SH051964 -19.80 122.99 -1 -19.95 122.50 -19.80 122.99 TC -19.81 123.02 2 -19.85 122.61 TC 32 970 3 124
1964 SI WA 23:00:00 TS -19.91 122.88 0 0 P_____P__PO_P_ SH051964 -19.86 123.06 -1 -19.98 122.65 -19.86 123.06 TC -19.90 123.10 2 -19.88 122.74 TC 30 972 3 123
1964 SI WA 1964-01-11 00:00:00 TS -19.94 122.93 0 0 O_____P__OP_O_ jtwc_sh SH051964 -19.90 123.10 -1 -19.99 122.73 -19.90 123.10 TC -19.94 123.15 2 -19.90 122.80 TC 30 974 4 122
1964 SI WA 01:00:00 TS -19.97 122.99 980 bom 0 0 P_____O__PP_P_ SH051964 -19.95 123.16 -1 -20.00 122.80 980 -19.95 123.16 TC -19.98 123.20 2 -19.93 122.86 TC 30 975 3 130
1964 SI WA 03:00:00 TS -20.04 123.05 0 0 P_____P__PP_P_ SH051964 -20.05 123.30 -1 -19.97 122.61 -20.05 123.30 TC -20.06 123.30 2 -19.99 122.96 TC 30 978 2 140
1964 SI WA 06:00:00 TS -20.13 123.13 0 0 O_____P__OP_O_ jtwc_sh SH051964 -20.20 123.50 -1 -19.89 122.23 -20.20 123.50 TC -20.18 123.45 2 -20.10 123.10 TC 30 982 2 151
1964 SI WA 09:00:00 TS -20.21 123.16 0 0 P_____P__PP_P_ SH051964 -20.30 123.61 -1 -19.80 121.82 -20.30 123.61 TC -20.31 123.60 2 -20.20 123.20 TC 30 984 2 153
1964 SI WA 11:00:00 TS -20.25 123.18 0 0 P_____P__PO_P_ SH051964 -20.36 123.67 -1 -19.76 121.58 -20.36 123.67 TC -20.40 123.70 2 -20.27 123.26 TC 30 985 1 193
1964 SI WA 12:00:00 TS -20.27 123.15 0 0 O_____P__OP_O_ jtwc_sh SH051964 -20.40 123.70 -1 -19.74 121.49 -20.40 123.70 TC -20.45 123.75 2 -20.30 123.30 TC 30 986 2 0
1964 SI WA 15:00:00 TS -20.35 123.18 0 0 P_____P__PP_P_ SH051964 -20.54 123.83 -1 -19.75 121.36 -20.54 123.83 TC -20.59 123.88 2 -20.41 123.45 TC 30 988 2 160
1964 SI WA 18:00:00 TS -20.43 123.22 0 0 O_____P__OP_O_ jtwc_sh SH051964 -20.70 124.00 -1 -19.86 121.54 -20.70 124.00 TC -20.74 124.00 2 -20.50 123.60 TC 30 990 1 150
1964 SI WA 21:00:00 TS -20.48 123.25 0 0 ______P___P_P_ SH051964 -1 -20.11 122.14 TC -20.90 124.12 2 -20.54 123.63 TC 30 991 3 120
1964 SI WA 23:00:00 TS -20.55 123.44 0 0 ______P___O_P_ SH051964 -1 -20.36 122.83 TC -21.00 124.20 2 -20.57 123.71 TC 30 992 6 107
1964 SI WA 1964-01-12 00:00:00 TS -20.58 123.57 0 0 ______P_____O_ -1 -20.52 123.28 2 -20.60 123.80 TC 30 993 13 106
1964 SI WA 01:00:00 TS -20.68 123.88 995 bom 0 0 ______O_____P_ -1 -20.70 123.80 995 2 -20.65 123.97 TC 29 993 22 109
1964 SI WA 02:30:00 TS -20.87 124.49 995 bom 0 0 ______O_____P_ -1 -21.00 124.70 995 2 -20.74 124.29 TC 27 993 24 109
1964 SI WA 03:00:00 TS -20.93 124.70 0 0 ______P_____P_ -1 -21.09 124.99 2 -20.77 124.40 TC 27 994 21 105
1964 SI WA 06:00:00 TS -21.19 125.76 0 0 ______P_____O_ -1 -21.48 126.41 2 -20.90 125.10 TC 25 995 17 101
1964 SI WA 09:00:00 TS -21.24 126.46 0 0 ______P_____P_ -1 -21.65 127.37 2 -20.84 125.54 TC 25 995 11 89
1964 SI WA 12:00:00 TS -21.17 126.92 0 0 ______P_____O_ -1 -21.63 127.95 -20.70 125.90 TC 25 995 8 74
1964 SI WA 15:00:00 TS -21.03 127.25 0 0 ______P_____P_ -1 -21.47 128.20 -20.59 126.30 TC 22 995 7 66
1964 SI WA 18:00:00 TS -20.90 127.56 0 0 ______P_____O_ -1 -21.19 128.21 -20.50 126.70 TC 20 995 5 48
1964 SI WA 21:00:00 TS -20.68 127.67 0 0 ______P_____P_ -1 -20.84 128.05 -20.44 127.10 TC 20 995 5 15
1964 SI WA 1964-01-13 00:00:00 TS -20.43 127.70 0 0 ______P_____O_ -1 -20.44 127.79 -20.40 127.50 TC 20 995 6 4
1964 SI WA 01:00:00 NR -20.30 127.70 996 bom 0 ______O_______ -1 -20.30 127.70 996 TC 8 1